Time;durP1;ratioP1;P1;durP2;ratioP2;P2;SDS_P1;SDS_P2;PMS_P1;PMS_P2;Temp;Humidity;BMP_temperature;BMP_pressure;BME280_temperature;BME280_humidity;BME280_pressure;Samples;Min_cycle;Max_cycle;Signal;HPM_P1;HPM_P2
2023/05/05 00:01:28;;;;;;;5.27;4.40;;;15.80;99.90;;;;;;4962814;28;20221;-79
2023/05/05 00:03:56;;;;;;;7.40;6.73;;;15.80;99.90;;;;;;4980595;28;20606;-78
2023/05/05 00:06:23;;;;;;;6.47;5.87;;;15.80;99.90;;;;;;4963317;28;20193;-79
2023/05/05 00:08:50;;;;;;;9.90;9.10;;;15.80;99.90;;;;;;4965383;28;20239;-79
2023/05/05 00:11:17;;;;;;;9.33;8.43;;;15.80;99.90;;;;;;4981245;28;20214;-79
2023/05/05 00:13:44;;;;;;;7.80;7.10;;;15.80;99.90;;;;;;4963982;28;20213;-79
2023/05/05 00:16:10;;;;;;;6.80;6.20;;;15.70;99.90;;;;;;4980376;28;20260;-79
2023/05/05 00:18:37;;;;;;;7.70;7.10;;;15.60;99.90;;;;;;4963785;28;20220;-79
2023/05/05 00:21:05;;;;;;;8.20;7.50;;;15.60;99.90;;;;;;4971250;28;20220;-78
2023/05/05 00:23:32;;;;;;;8.13;7.43;;;15.60;99.90;;;;;;4961887;28;20209;-79
2023/05/05 00:25:59;;;;;;;8.43;7.63;;;15.50;99.90;;;;;;4963004;28;20289;-79
2023/05/05 00:28:26;;;;;;;6.10;5.60;;;15.50;99.90;;;;;;4980355;28;20252;-80
2023/05/05 00:30:53;;;;;;;7.13;6.43;;;15.40;99.90;;;;;;4962553;28;20231;-79
2023/05/05 00:33:20;;;;;;;7.23;6.63;;;15.40;99.90;;;;;;4962229;28;20208;-79
2023/05/05 00:35:46;;;;;;;6.27;5.77;;;15.40;99.90;;;;;;4965733;28;20630;-79
2023/05/05 00:38:15;;;;;;;6.67;5.97;;;15.30;99.90;;;;;;4962308;28;20285;-79
2023/05/05 00:40:41;;;;;;;7.50;6.87;;;15.40;99.90;;;;;;4973374;28;20736;-79
2023/05/05 00:43:08;;;;;;;7.57;6.97;;;15.30;99.90;;;;;;4966268;28;20208;-79
2023/05/05 00:45:37;;;;;;;7.60;7.00;;;15.30;99.90;;;;;;4983559;28;20209;-79
2023/05/05 00:48:06;;;;;;;8.10;7.50;;;15.30;99.90;;;;;;4983456;28;20200;-79
2023/05/05 00:50:34;;;;;;;8.60;8.00;;;15.20;99.90;;;;;;5021230;23;20228;-77
2023/05/05 00:53:02;;;;;;;6.30;5.80;;;15.20;99.90;;;;;;5006736;28;20897;-79
2023/05/05 00:55:31;;;;;;;8.33;7.73;;;15.20;99.90;;;;;;5005731;28;20200;-78
2023/05/05 00:57:59;;;;;;;7.70;7.10;;;15.20;99.90;;;;;;4985018;28;20249;-78
2023/05/05 01:00:26;;;;;;;8.43;7.70;;;15.20;99.90;;;;;;5008433;28;20213;-78
2023/05/05 01:02:55;;;;;;;9.20;8.40;;;15.20;99.90;;;;;;4991461;28;20223;-77
2023/05/05 01:05:23;;;;;;;9.33;8.63;;;15.10;99.90;;;;;;5007985;28;20199;-79
2023/05/05 01:08:08;;;;;;;7.37;6.77;;;15.00;99.90;;;;;;4991339;28;20201;-78
2023/05/05 01:10:43;;;;;;;5.03;4.53;;;14.90;99.90;;;;;;4994067;28;20228;-80
2023/05/05 01:13:22;;;;;;;8.23;7.63;;;14.80;99.90;;;;;;4990722;28;20245;-78
2023/05/05 01:15:56;;;;;;;6.77;6.17;;;14.80;99.90;;;;;;4996369;28;20208;-80
2023/05/05 01:18:31;;;;;;;6.23;5.70;;;14.80;99.90;;;;;;4999704;28;20234;-80
2023/05/05 01:21:05;;;;;;;5.93;5.30;;;14.80;99.90;;;;;;5000052;28;20619;-80
2023/05/05 01:23:47;;;;;;;5.67;4.90;;;14.80;99.90;;;;;;5005440;28;20290;-81
2023/05/05 01:26:40;;;;;;;6.50;5.90;;;14.80;99.90;;;;;;4997002;28;20303;-81
2023/05/05 01:29:31;;;;;;;5.87;5.37;;;14.70;99.90;;;;;;5007664;28;20219;-80
2023/05/05 01:32:02;;;;;;;5.83;5.30;;;14.70;99.90;;;;;;4989328;28;20231;-80
2023/05/05 01:34:35;;;;;;;5.70;4.90;;;14.70;99.90;;;;;;5006983;28;20227;-81
2023/05/05 01:37:09;;;;;;;5.37;4.83;;;14.60;99.90;;;;;;4989295;28;20203;-80
2023/05/05 01:39:40;;;;;;;6.20;5.13;;;14.60;99.90;;;;;;4992820;28;20229;-80
2023/05/05 01:42:12;;;;;;;5.30;4.80;;;14.60;99.90;;;;;;4990098;28;20203;-78
2023/05/05 01:44:43;;;;;;;6.57;6.07;;;14.50;99.90;;;;;;5008101;28;20233;-78
2023/05/05 01:47:15;;;;;;;9.03;8.33;;;14.50;99.90;;;;;;4990105;28;20227;-78
2023/05/05 01:49:45;;;;;;;8.27;7.67;;;14.50;99.90;;;;;;4991717;28;20237;-80
2023/05/05 01:52:13;;;;;;;8.70;8.10;;;14.50;99.90;;;;;;4994187;28;20220;-81
2023/05/05 01:54:41;;;;;;;8.43;7.73;;;14.50;99.90;;;;;;4988158;28;20205;-81
2023/05/05 01:57:09;;;;;;;8.53;7.93;;;14.40;99.90;;;;;;4989085;28;20258;-79
2023/05/05 01:59:38;;;;;;;7.93;7.33;;;14.40;99.90;;;;;;4989879;28;20326;-79
2023/05/05 02:02:08;;;;;;;8.70;8.00;;;14.40;99.90;;;;;;4989117;28;20201;-79
2023/05/05 02:04:38;;;;;;;8.53;7.83;;;14.40;99.90;;;;;;4989200;28;20208;-79
2023/05/05 02:07:06;;;;;;;9.40;8.70;;;14.40;99.90;;;;;;5008149;28;20551;-80
2023/05/05 02:09:34;;;;;;;9.43;8.73;;;14.50;99.90;;;;;;5008281;28;20226;-79
2023/05/05 02:12:02;;;;;;;9.30;8.50;;;14.50;99.90;;;;;;4993373;28;20228;-78
2023/05/05 02:14:30;;;;;;;5.00;4.50;;;14.40;99.90;;;;;;4989350;28;20287;-79
2023/05/05 02:16:58;;;;;;;4.83;4.33;;;14.40;99.90;;;;;;4989797;28;20205;-79
2023/05/05 02:19:30;;;;;;;5.20;4.70;;;14.40;99.90;;;;;;4993178;28;20582;-78
2023/05/05 02:21:58;;;;;;;4.70;4.30;;;14.30;99.90;;;;;;4990522;28;20200;-80
2023/05/05 02:24:25;;;;;;;4.67;4.17;;;14.20;99.90;;;;;;4988335;28;20222;-79
2023/05/05 02:26:54;;;;;;;5.00;4.50;;;14.20;99.90;;;;;;4986324;28;20431;-79
2023/05/05 02:29:28;;;;;;;8.80;5.17;;;14.10;99.90;;;;;;4986279;28;20217;-79
2023/05/05 02:32:00;;;;;;;8.83;8.10;;;14.10;99.90;;;;;;4987126;28;20217;-80
2023/05/05 02:34:33;;;;;;;8.00;7.30;;;14.00;99.90;;;;;;4995684;28;20410;-79
2023/05/05 02:37:06;;;;;;;9.43;8.70;;;13.90;99.90;;;;;;4988012;28;20239;-78
2023/05/05 02:39:42;;;;;;;10.17;9.37;;;13.90;99.90;;;;;;4988833;28;20222;-79
2023/05/05 02:42:18;;;;;;;9.93;9.13;;;13.80;99.90;;;;;;4983980;28;20200;-83
2023/05/05 02:44:46;;;;;;;9.67;8.87;;;13.80;99.90;;;;;;4988780;28;20212;-79
2023/05/05 02:47:13;;;;;;;10.10;9.30;;;13.70;99.90;;;;;;4987995;28;20200;-77
2023/05/05 02:49:40;;;;;;;9.07;8.47;;;13.70;99.90;;;;;;4987051;28;20235;-79
2023/05/05 02:52:19;;;;;;;8.93;8.27;;;13.70;99.90;;;;;;4999022;28;20252;-84
2023/05/05 02:54:47;;;;;;;8.43;7.83;;;13.70;99.90;;;;;;4976733;28;20306;-84
2023/05/05 02:57:20;;;;;;;5.10;4.33;;;13.70;99.90;;;;;;4976152;28;20399;-82
2023/05/05 03:00:04;;;;;;;5.27;4.77;;;13.70;99.90;;;;;;4978714;28;20308;-81
2023/05/05 03:02:38;;;;;;;4.83;4.33;;;13.70;99.90;;;;;;4978701;28;20203;-80
2023/05/05 03:05:10;;;;;;;5.03;4.50;;;13.70;99.90;;;;;;4978013;28;20209;-81
2023/05/05 03:07:53;;;;;;;5.00;4.50;;;13.60;99.90;;;;;;4978904;28;20226;-81
2023/05/05 03:10:26;;;;;;;7.13;6.53;;;13.60;99.90;;;;;;4979267;28;20217;-82
2023/05/05 03:12:55;;;;;;;7.33;6.60;;;13.60;99.90;;;;;;4990420;28;20654;-82
2023/05/05 03:15:41;;;;;;;8.13;7.43;;;13.60;99.90;;;;;;4980287;28;20302;-82
2023/05/05 03:18:10;;;;;;;4.70;4.30;;;13.60;99.90;;;;;;4983440;28;20206;-82
2023/05/05 03:20:40;;;;;;;5.80;5.20;;;13.60;99.90;;;;;;4972953;28;20221;-82
2023/05/05 03:23:12;;;;;;;5.67;4.70;;;13.70;99.90;;;;;;4979247;28;20209;-81
2023/05/05 03:25:43;;;;;;;5.13;4.63;;;13.70;99.90;;;;;;4977902;28;20256;-82
2023/05/05 03:28:13;;;;;;;5.20;4.70;;;13.70;99.90;;;;;;4977270;28;20264;-82
2023/05/05 03:30:40;;;;;;;6.93;6.23;;;13.70;99.90;;;;;;4997001;28;20250;-81
2023/05/05 03:33:08;;;;;;;6.90;6.30;;;13.70;99.90;;;;;;4978893;28;20202;-82
2023/05/05 03:35:36;;;;;;;6.33;5.27;;;13.80;99.90;;;;;;4985438;28;20229;-82
2023/05/05 03:38:03;;;;;;;5.90;4.77;;;13.80;99.90;;;;;;4978661;28;20211;-81
2023/05/05 03:40:31;;;;;;;5.20;4.60;;;13.80;99.90;;;;;;4977189;28;20219;-81
2023/05/05 03:42:58;;;;;;;5.57;4.70;;;13.80;99.90;;;;;;4977708;28;20197;-82
2023/05/05 03:45:25;;;;;;;5.53;5.03;;;13.70;99.90;;;;;;4977907;28;20201;-83
2023/05/05 03:47:52;;;;;;;5.37;4.87;;;13.70;99.90;;;;;;4975482;28;20212;-79
2023/05/05 03:50:19;;;;;;;5.30;4.80;;;13.70;99.90;;;;;;4984377;28;20232;-79
2023/05/05 03:52:46;;;;;;;6.07;4.33;;;13.60;99.90;;;;;;4991237;28;20240;-79
2023/05/05 03:55:13;;;;;;;5.97;5.37;;;13.60;99.90;;;;;;4983620;28;20212;-79
2023/05/05 03:57:41;;;;;;;6.07;5.10;;;13.50;99.90;;;;;;4992166;28;20197;-78
2023/05/05 04:00:10;;;;;;;5.93;5.33;;;13.50;99.90;;;;;;4992343;28;20288;-78
2023/05/05 04:02:42;;;;;;;5.70;4.90;;;13.50;99.90;;;;;;5000763;28;20201;-79
2023/05/05 04:05:11;;;;;;;5.10;4.60;;;13.50;99.90;;;;;;4982494;28;20560;-79
2023/05/05 04:07:38;;;;;;;5.87;5.27;;;13.50;99.90;;;;;;4990890;28;20596;-79
2023/05/05 04:10:06;;;;;;;6.20;5.50;;;13.50;99.90;;;;;;4998768;28;20300;-79
2023/05/05 04:12:33;;;;;;;5.73;5.10;;;13.60;99.90;;;;;;4984671;28;20600;-78
2023/05/05 04:15:02;;;;;;;6.43;5.43;;;13.60;99.90;;;;;;4988914;28;20197;-80
2023/05/05 04:17:29;;;;;;;6.37;5.37;;;13.70;99.90;;;;;;4993335;28;20662;-79
2023/05/05 04:19:56;;;;;;;5.20;4.70;;;13.80;99.90;;;;;;5002723;28;20745;-78
2023/05/05 04:22:22;;;;;;;5.70;5.00;;;13.90;99.90;;;;;;4994918;28;20224;-79
2023/05/05 04:24:50;;;;;;;5.40;4.90;;;13.90;99.90;;;;;;4994815;28;20751;-80
2023/05/05 04:27:18;;;;;;;5.70;5.10;;;14.00;99.90;;;;;;4988537;28;20636;-80
2023/05/05 04:29:45;;;;;;;6.63;5.37;;;14.10;99.90;;;;;;4993471;28;20252;-79
2023/05/05 04:32:13;;;;;;;6.07;5.10;;;14.20;99.90;;;;;;4988362;28;20222;-79
2023/05/05 04:34:40;;;;;;;5.60;5.10;;;14.30;99.90;;;;;;4992224;28;20244;-79
2023/05/05 04:37:07;;;;;;;5.87;5.27;;;14.40;99.90;;;;;;4991600;28;20211;-77
2023/05/05 04:39:34;;;;;;;6.87;6.27;;;14.40;99.90;;;;;;4997387;28;20239;-78
2023/05/05 04:42:02;;;;;;;5.77;5.13;;;14.60;99.90;;;;;;4987184;28;20606;-79
2023/05/05 04:44:28;;;;;;;6.17;5.53;;;14.60;99.90;;;;;;4990864;28;20200;-79
2023/05/05 04:46:56;;;;;;;5.40;4.90;;;14.60;99.90;;;;;;4984600;28;20253;-78
2023/05/05 04:49:25;;;;;;;4.93;4.47;;;14.60;99.90;;;;;;4994225;28;20331;-80
2023/05/05 04:51:51;;;;;;;5.47;4.97;;;14.60;99.90;;;;;;5003758;28;20228;-80
2023/05/05 04:54:18;;;;;;;5.80;5.20;;;14.60;99.90;;;;;;4994596;28;20256;-79
2023/05/05 04:56:45;;;;;;;5.50;5.00;;;14.70;99.90;;;;;;4999934;28;20198;-79
2023/05/05 04:59:12;;;;;;;5.53;4.60;;;14.70;99.90;;;;;;5001922;28;20220;-80
2023/05/05 05:01:39;;;;;;;4.80;4.40;;;14.70;99.90;;;;;;4993869;28;20573;-78
2023/05/05 05:04:06;;;;;;;5.77;5.10;;;14.70;99.90;;;;;;5001400;28;20590;-79
2023/05/05 05:06:34;;;;;;;7.77;7.10;;;14.80;99.90;;;;;;4984699;28;20198;-78
2023/05/05 05:09:01;;;;;;;6.90;6.40;;;14.80;99.90;;;;;;4991871;28;20226;-78
2023/05/05 05:11:29;;;;;;;6.50;5.90;;;14.80;99.90;;;;;;5001387;28;20218;-79
2023/05/05 05:13:55;;;;;;;5.10;4.60;;;14.80;99.90;;;;;;4990536;28;20620;-79
2023/05/05 05:16:24;;;;;;;7.07;6.43;;;14.90;99.90;;;;;;4990514;28;20212;-78
2023/05/05 05:18:51;;;;;;;7.87;7.17;;;14.90;99.90;;;;;;4996356;28;20231;-79
2023/05/05 05:21:18;;;;;;;6.90;6.30;;;14.90;99.90;;;;;;4990921;28;20661;-79
2023/05/05 05:23:46;;;;;;;6.73;6.13;;;15.00;99.90;;;;;;4999594;28;20200;-79
2023/05/05 05:26:13;;;;;;;7.50;6.80;;;15.10;99.90;;;;;;4993854;28;20222;-79
2023/05/05 05:28:41;;;;;;;6.90;6.40;;;15.20;99.90;;;;;;4988086;28;20226;-78
2023/05/05 05:31:08;;;;;;;8.67;5.00;;;15.30;99.90;;;;;;4988931;28;20297;-78
2023/05/05 05:33:35;;;;;;;5.47;4.97;;;15.40;99.90;;;;;;4981859;28;20256;-78
2023/05/05 05:36:02;;;;;;;4.93;4.50;;;15.50;99.90;;;;;;4989404;28;20208;-79
2023/05/05 05:38:29;;;;;;;4.67;4.27;;;15.80;99.90;;;;;;4989767;28;20479;-79
2023/05/05 05:41:05;;;;;;;4.90;4.40;;;16.00;99.90;;;;;;4990934;28;20229;-79
2023/05/05 05:43:31;;;;;;;6.40;5.47;;;16.40;99.90;;;;;;4986320;28;20220;-78
2023/05/05 05:45:58;;;;;;;6.87;4.80;;;17.10;99.90;;;;;;4991607;28;20221;-78
2023/05/05 05:48:27;;;;;;;5.63;4.67;;;17.70;99.90;;;;;;4984040;28;20201;-80
2023/05/05 05:50:54;;;;;;;4.50;4.10;;;18.20;99.90;;;;;;4991861;28;20230;-81
2023/05/05 05:53:21;;;;;;;4.27;3.63;;;18.70;99.90;;;;;;4992147;28;20573;-80
2023/05/05 05:55:49;;;;;;;4.20;3.80;;;18.90;99.90;;;;;;4992142;28;20276;-83
2023/05/05 05:58:18;;;;;;;5.47;4.23;;;19.00;99.90;;;;;;4991277;28;20212;-84
2023/05/05 06:00:45;;;;;;;4.60;4.00;;;19.10;99.90;;;;;;4992182;28;20315;-80
2023/05/05 06:03:12;;;;;;;4.87;3.70;;;19.10;99.90;;;;;;5000271;28;20525;-78
2023/05/05 06:05:40;;;;;;;5.07;4.50;;;19.00;99.90;;;;;;4999109;28;20227;-79
2023/05/05 06:08:07;;;;;;;6.43;3.97;;;18.90;99.90;;;;;;4990741;28;20216;-79
2023/05/05 06:10:38;;;;;;;4.03;3.60;;;19.00;99.90;;;;;;4986296;28;20219;-79
2023/05/05 06:13:10;;;;;;;4.03;3.63;;;19.00;99.90;;;;;;4989698;28;20614;-80
2023/05/05 06:15:42;;;;;;;5.27;4.53;;;19.00;99.90;;;;;;4990011;28;20208;-78
2023/05/05 06:18:10;;;;;;;4.23;3.83;;;19.00;99.90;;;;;;4986062;28;20207;-79
2023/05/05 06:20:37;;;;;;;3.83;3.50;;;19.10;99.90;;;;;;4981178;28;20213;-78
2023/05/05 06:23:04;;;;;;;3.83;3.33;;;19.30;99.90;;;;;;4982626;28;20611;-79
2023/05/05 06:25:33;;;;;;;3.87;3.53;;;19.60;99.90;;;;;;4990129;28;20236;-80
2023/05/05 06:28:00;;;;;;;4.70;3.70;;;19.80;99.90;;;;;;4982896;28;20481;-79
2023/05/05 06:30:27;;;;;;;6.30;3.93;;;20.00;99.90;;;;;;5001126;28;20250;-80
2023/05/05 06:32:55;;;;;;;4.73;3.53;;;20.20;99.90;;;;;;4983427;28;20665;-79
2023/05/05 06:35:23;;;;;;;4.87;3.50;;;20.50;99.90;;;;;;4987912;28;20197;-79
2023/05/05 06:37:50;;;;;;;4.07;3.70;;;20.70;99.90;;;;;;4983506;28;20571;-78
2023/05/05 06:40:17;;;;;;;4.10;3.70;;;20.80;99.90;;;;;;4984211;28;20779;-80
2023/05/05 06:42:44;;;;;;;3.17;2.97;;;20.80;99.90;;;;;;4999703;28;20650;-79
2023/05/05 06:45:17;;;;;;;4.00;3.50;;;20.90;99.90;;;;;;4981883;28;20198;-78
2023/05/05 06:47:44;;;;;;;5.83;3.57;;;21.10;99.90;;;;;;4982652;28;20550;-80
2023/05/05 06:50:13;;;;;;;3.87;3.50;;;21.50;99.90;;;;;;5001436;28;20232;-80
2023/05/05 06:52:40;;;;;;;4.17;3.23;;;21.90;99.90;;;;;;4985410;28;20571;-80
2023/05/05 06:55:07;;;;;;;4.03;3.20;;;22.50;99.90;;;;;;5001531;28;20351;-80
2023/05/05 06:57:34;;;;;;;3.97;3.20;;;22.90;99.90;;;;;;4985425;28;20209;-81
2023/05/05 07:00:04;;;;;;;4.80;3.30;;;23.20;99.90;;;;;;4986460;28;20767;-80
2023/05/05 07:02:32;;;;;;;5.50;3.10;;;23.10;99.90;;;;;;4984574;28;20217;-81
2023/05/05 07:04:59;;;;;;;6.10;3.70;;;23.00;99.90;;;;;;5005031;28;20280;-81
2023/05/05 07:07:27;;;;;;;5.53;2.87;;;22.70;99.90;;;;;;4985296;28;20201;-80
2023/05/05 07:09:54;;;;;;;4.27;2.97;;;22.60;99.90;;;;;;4994025;28;20217;-80
2023/05/05 07:12:20;;;;;;;4.37;3.10;;;22.30;99.90;;;;;;4987835;28;20200;-82
2023/05/05 07:14:47;;;;;;;3.70;3.13;;;22.20;99.90;;;;;;4984546;28;20201;-83
2023/05/05 07:17:14;;;;;;;3.87;3.47;;;22.00;99.90;;;;;;4984935;28;20200;-81
2023/05/05 07:19:41;;;;;;;5.47;3.20;;;21.90;99.90;;;;;;4985815;28;20267;-81
2023/05/05 07:22:08;;;;;;;3.17;2.87;;;21.90;99.90;;;;;;4985141;28;20201;-81
2023/05/05 07:24:36;;;;;;;6.33;3.73;;;21.70;99.90;;;;;;5002941;28;20208;-81
2023/05/05 07:27:03;;;;;;;3.30;3.00;;;21.60;99.90;;;;;;4990851;28;20197;-81
2023/05/05 07:29:30;;;;;;;6.43;4.17;;;21.70;99.90;;;;;;4984647;28;20714;-81
2023/05/05 07:31:57;;;;;;;3.87;3.57;;;21.70;99.90;;;;;;4996499;28;20189;-80
2023/05/05 07:34:24;;;;;;;5.03;3.90;;;21.70;99.90;;;;;;4993380;28;20205;-80
2023/05/05 07:36:51;;;;;;;4.90;4.50;;;21.80;99.90;;;;;;4984450;28;20221;-80
2023/05/05 07:39:19;;;;;;;4.17;3.87;;;21.80;99.90;;;;;;5001797;28;20221;-80
2023/05/05 07:41:48;;;;;;;3.37;3.07;;;21.70;99.90;;;;;;4985204;28;20550;-81
2023/05/05 07:44:14;;;;;;;4.30;4.00;;;21.60;99.90;;;;;;5002500;28;20209;-81
2023/05/05 07:46:41;;;;;;;4.67;3.10;;;21.40;99.90;;;;;;5003058;28;20201;-80
2023/05/05 07:49:08;;;;;;;4.83;4.53;;;21.10;99.90;;;;;;4998477;28;20220;-82
2023/05/05 07:51:35;;;;;;;5.40;5.00;;;20.90;99.90;;;;;;5002066;28;20208;-78
2023/05/05 07:54:01;;;;;;;6.30;5.90;;;20.70;99.90;;;;;;4982356;28;20673;-82
2023/05/05 07:56:28;;;;;;;6.43;5.83;;;20.60;99.90;;;;;;4980110;28;20217;-79
2023/05/05 07:58:56;;;;;;;5.73;5.33;;;20.40;99.90;;;;;;4979761;28;20225;-78
2023/05/05 08:01:23;;;;;;;5.07;4.67;;;20.40;99.90;;;;;;4981390;28;20263;-78
2023/05/05 08:03:50;;;;;;;4.73;4.40;;;20.40;99.90;;;;;;4985246;28;20224;-83
2023/05/05 08:06:20;;;;;;;3.77;2.90;;;20.30;99.90;;;;;;4980368;28;20197;-84
2023/05/05 08:08:48;;;;;;;2.97;2.70;;;20.30;99.90;;;;;;4980476;28;20275;-84
2023/05/05 08:11:15;;;;;;;5.80;5.40;;;20.10;99.90;;;;;;5002977;28;20208;-80
2023/05/05 08:13:43;;;;;;;3.20;2.90;;;20.00;99.90;;;;;;4984916;28;20428;-81
2023/05/05 08:16:11;;;;;;;4.43;4.10;;;19.80;99.90;;;;;;4979254;28;20636;-80
2023/05/05 08:18:38;;;;;;;6.87;6.37;;;19.60;99.90;;;;;;4976954;28;20673;-80
2023/05/05 08:21:05;;;;;;;5.37;4.97;;;19.50;99.90;;;;;;4994143;28;20741;-80
2023/05/05 08:23:32;;;;;;;4.57;4.20;;;19.40;99.90;;;;;;4983223;28;20643;-78
2023/05/05 08:25:59;;;;;;;3.40;3.03;;;19.30;99.90;;;;;;4994241;28;20205;-80
2023/05/05 08:28:26;;;;;;;3.10;2.90;;;19.30;99.90;;;;;;4987970;28;20197;-80
2023/05/05 08:30:53;;;;;;;3.50;3.20;;;19.30;99.90;;;;;;4993707;28;20209;-81
2023/05/05 08:33:21;;;;;;;3.60;3.20;;;19.20;99.90;;;;;;4988263;28;20196;-81
2023/05/05 08:35:48;;;;;;;5.70;3.60;;;19.10;99.90;;;;;;4991981;28;20193;-80
2023/05/05 08:38:15;;;;;;;4.37;2.93;;;19.10;99.90;;;;;;4989224;28;20252;-80
2023/05/05 08:40:42;;;;;;;5.00;4.50;;;18.90;99.90;;;;;;4991390;28;20233;-81
2023/05/05 08:43:09;;;;;;;4.43;3.30;;;18.80;99.90;;;;;;4988911;28;20213;-80
2023/05/05 08:45:38;;;;;;;5.87;3.23;;;18.70;99.90;;;;;;4984689;28;20213;-82
2023/05/05 08:48:05;;;;;;;5.77;3.83;;;18.70;99.90;;;;;;4990384;28;20682;-82
2023/05/05 08:50:33;;;;;;;5.33;3.90;;;18.70;99.90;;;;;;4993534;28;20224;-82
2023/05/05 08:53:09;;;;;;;5.07;3.77;;;18.60;99.90;;;;;;4985507;28;20582;-81
2023/05/05 08:55:41;;;;;;;4.07;3.50;;;18.60;99.90;;;;;;4989633;28;20215;-80
2023/05/05 08:58:09;;;;;;;3.97;3.47;;;18.60;99.90;;;;;;4985082;28;20220;-81
2023/05/05 09:00:36;;;;;;;3.37;3.00;;;18.60;99.90;;;;;;4989816;28;20714;-82
2023/05/05 09:03:05;;;;;;;3.93;3.03;;;18.70;99.90;;;;;;4997395;28;20213;-82
2023/05/05 09:05:34;;;;;;;4.00;3.30;;;18.70;99.90;;;;;;5000005;28;20629;-81
2023/05/05 09:08:01;;;;;;;3.97;3.30;;;18.80;99.90;;;;;;5005410;28;20189;-80
2023/05/05 09:10:28;;;;;;;3.87;2.83;;;19.00;99.90;;;;;;5003116;28;20225;-81
2023/05/05 09:12:57;;;;;;;3.47;3.17;;;19.10;99.90;;;;;;5009298;28;20200;-80
2023/05/05 09:15:24;;;;;;;3.70;3.40;;;19.30;99.90;;;;;;5013954;28;20204;-79
2023/05/05 09:17:51;;;;;;;5.03;3.33;;;19.50;99.90;;;;;;5000628;28;20236;-81
2023/05/05 09:20:17;;;;;;;4.93;3.40;;;19.60;99.90;;;;;;5004202;28;20217;-80
2023/05/05 09:22:47;;;;;;;3.77;3.37;;;19.70;99.90;;;;;;5004308;28;20213;-81
2023/05/05 09:25:15;;;;;;;4.03;3.50;;;19.90;99.90;;;;;;5001857;28;20197;-80
2023/05/05 09:27:45;;;;;;;5.23;3.83;;;20.10;99.90;;;;;;5004921;28;20741;-81
2023/05/05 09:30:15;;;;;;;4.53;3.03;;;20.20;99.90;;;;;;5006979;28;20295;-81
2023/05/05 09:32:44;;;;;;;3.63;3.33;;;20.30;99.90;;;;;;5000581;28;20274;-81
2023/05/05 09:35:11;;;;;;;3.90;3.00;;;20.60;99.90;;;;;;4994087;28;20634;-80
2023/05/05 09:37:38;;;;;;;3.43;3.13;;;20.70;99.90;;;;;;4992830;28;20210;-82
2023/05/05 09:40:08;;;;;;;3.20;2.90;;;20.60;99.90;;;;;;4990399;28;20213;-82
2023/05/05 09:42:36;;;;;;;3.10;2.90;;;20.70;99.90;;;;;;4997635;28;20205;-81
2023/05/05 09:45:03;;;;;;;4.20;3.00;;;21.30;99.90;;;;;;5002597;28;20217;-81
2023/05/05 09:47:34;;;;;;;4.07;3.30;;;22.00;99.90;;;;;;4991681;28;20205;-81
2023/05/05 09:50:01;;;;;;;4.17;3.20;;;22.60;99.90;;;;;;4999049;28;20287;-82
2023/05/05 09:52:29;;;;;;;3.90;3.03;;;23.10;99.90;;;;;;4994370;28;20255;-82
2023/05/05 09:54:56;;;;;;;3.77;3.40;;;23.50;99.90;;;;;;4984123;28;20684;-80
2023/05/05 09:57:30;;;;;;;3.70;3.20;;;23.70;99.90;;;;;;4989267;28;20194;-78
2023/05/05 09:59:58;;;;;;;4.30;3.87;;;24.00;99.90;;;;;;5001306;28;20221;-80
2023/05/05 10:02:33;;;;;;;5.03;3.60;;;24.20;99.90;;;;;;4999711;28;20197;-80
2023/05/05 10:05:08;;;;;;;3.60;3.10;;;24.10;99.90;;;;;;4996347;28;20220;-78
2023/05/05 10:07:35;;;;;;;3.67;3.37;;;23.90;99.90;;;;;;5001009;28;20252;-78
2023/05/05 10:10:03;;;;;;;4.90;3.57;;;23.60;99.90;;;;;;5000861;28;20791;-84
2023/05/05 10:12:34;;;;;;;5.73;3.37;;;23.40;99.90;;;;;;4989145;28;20692;-83
2023/05/05 10:15:02;;;;;;;5.03;3.40;;;23.20;99.90;;;;;;4992048;28;20197;-84
2023/05/05 10:17:31;;;;;;;4.33;3.30;;;23.50;99.90;;;;;;4986134;28;20240;-80
2023/05/05 10:20:02;;;;;;;3.17;2.97;;;23.40;99.90;;;;;;4991823;28;20299;-82
2023/05/05 10:22:33;;;;;;;3.30;3.00;;;23.50;99.90;;;;;;4983538;28;20211;-82
2023/05/05 10:25:03;;;;;;;3.33;3.00;;;23.60;99.90;;;;;;4995081;28;20348;-83
2023/05/05 10:27:38;;;;;;;3.10;2.80;;;23.50;99.90;;;;;;4994300;28;20193;-83
2023/05/05 10:30:07;;;;;;;4.40;3.30;;;23.40;99.90;;;;;;4988083;28;20359;-83
2023/05/05 10:32:39;;;;;;;2.80;2.60;;;23.50;99.90;;;;;;4990738;28;20209;-84
2023/05/05 10:35:09;;;;;;;2.83;2.63;;;23.60;99.90;;;;;;4987657;28;20210;-82
2023/05/05 10:37:38;;;;;;;3.00;2.80;;;23.70;99.90;;;;;;4996862;28;20201;-82
2023/05/05 10:40:07;;;;;;;3.20;2.83;;;23.40;99.90;;;;;;4989143;28;20221;-81
2023/05/05 10:42:38;;;;;;;2.90;2.60;;;23.70;99.90;;;;;;4997279;28;20269;-84
2023/05/05 10:45:06;;;;;;;3.57;2.80;;;23.80;99.90;;;;;;4988617;28;20221;-82
2023/05/05 10:47:34;;;;;;;2.80;2.60;;;23.70;99.90;;;;;;4986525;28;20255;-82
2023/05/05 10:50:07;;;;;;;2.73;2.53;;;23.80;99.90;;;;;;4989937;28;20247;-81
2023/05/05 10:52:37;;;;;;;3.50;2.60;;;24.00;99.90;;;;;;4988986;28;20264;-83
2023/05/05 10:55:12;;;;;;;2.50;2.30;;;24.00;99.90;;;;;;4997327;28;20539;-83
2023/05/05 10:57:42;;;;;;;2.53;2.33;;;24.00;99.90;;;;;;4996396;28;20207;-83
2023/05/05 11:00:10;;;;;;;3.83;2.60;;;24.10;99.90;;;;;;4996342;28;20228;-82
2023/05/05 11:02:37;;;;;;;2.70;2.50;;;24.30;99.90;;;;;;4995561;28;20700;-84
2023/05/05 11:05:15;;;;;;;3.00;2.67;;;24.50;99.90;;;;;;4996637;28;20221;-84
2023/05/05 11:07:42;;;;;;;2.90;2.60;;;24.50;99.90;;;;;;4979610;28;20212;-84
2023/05/05 11:10:10;;;;;;;4.87;2.63;;;24.00;99.90;;;;;;4980610;28;20228;-85
2023/05/05 11:13:15;;;;;;;2.57;2.37;;;23.70;99.90;;;;;;4980287;28;20263;-82
2023/05/05 11:15:43;;;;;;;2.93;2.60;;;23.70;99.90;;;;;;4980281;28;20204;-82
2023/05/05 11:18:34;;;;;;;2.93;2.23;;;23.80;99.90;;;;;;4987569;28;20248;-83
2023/05/05 11:21:15;;;;;;;3.50;2.47;;;23.80;99.90;;;;;;4978746;28;20205;-83
2023/05/05 11:23:44;;;;;;;3.40;2.50;;;23.90;99.90;;;;;;4997559;28;20216;-82
2023/05/05 11:26:12;;;;;;;3.63;2.70;;;23.70;99.90;;;;;;4978660;28;20211;-82
2023/05/05 11:28:59;;;;;;;6.33;2.53;;;23.60;99.90;;;;;;4996587;28;20200;-80
2023/05/05 11:31:28;;;;;;;2.60;2.40;;;23.20;99.90;;;;;;4996155;28;20205;-79
2023/05/05 11:33:55;;;;;;;2.60;2.40;;;23.20;99.90;;;;;;4996052;28;20194;-82
2023/05/05 11:36:39;;;;;;;2.60;2.40;;;23.30;99.90;;;;;;4979884;28;20212;-82
2023/05/05 11:39:10;;;;;;;3.07;2.37;;;23.40;99.90;;;;;;4979391;28;20220;-82
2023/05/05 11:42:14;;;;;;;2.47;2.27;;;23.50;99.90;;;;;;4995304;28;20201;-82
2023/05/05 11:44:41;;;;;;;2.70;2.50;;;23.80;99.90;;;;;;4981194;28;20676;-83
2023/05/05 11:47:29;;;;;;;2.33;2.20;;;23.80;99.90;;;;;;4979315;28;20678;-83
2023/05/05 11:49:56;;;;;;;2.40;2.30;;;24.10;99.90;;;;;;4979836;28;20239;-84
2023/05/05 11:52:29;;;;;;;2.70;2.30;;;24.40;99.90;;;;;;4996545;28;20251;-84
2023/05/05 11:55:02;;;;;;;2.37;2.27;;;24.40;99.90;;;;;;4995911;28;20861;-84
2023/05/05 11:57:30;;;;;;;2.50;2.30;;;24.40;99.90;;;;;;4988814;28;20212;-85
2023/05/05 12:00:01;;;;;;;2.77;2.33;;;24.60;99.90;;;;;;4997910;28;20593;-80
2023/05/05 12:02:30;;;;;;;4.07;2.67;;;24.40;99.90;;;;;;4987432;28;20197;-80
2023/05/05 12:04:58;;;;;;;2.50;2.30;;;24.40;99.90;;;;;;5000712;28;20269;-79
2023/05/05 12:07:27;;;;;;;3.40;2.73;;;24.30;99.90;;;;;;4985757;28;20201;-78
2023/05/05 12:09:54;;;;;;;2.70;2.50;;;24.30;99.90;;;;;;4992070;28;20221;-79
2023/05/05 12:12:21;;;;;;;3.30;2.70;;;24.10;99.90;;;;;;4982165;28;20212;-80
2023/05/05 12:14:51;;;;;;;2.60;2.40;;;23.90;99.90;;;;;;4983989;28;20201;-78
2023/05/05 12:17:19;;;;;;;5.23;2.67;;;23.60;99.90;;;;;;4984623;28;20211;-79
2023/05/05 12:19:52;;;;;;;3.10;2.80;;;23.50;99.90;;;;;;4986319;28;20295;-80
2023/05/05 12:22:20;;;;;;;3.23;2.90;;;23.70;99.90;;;;;;5001459;28;20228;-79
2023/05/05 12:24:57;;;;;;;4.47;2.90;;;23.80;99.90;;;;;;4984426;28;20220;-80
2023/05/05 12:27:26;;;;;;;3.87;2.70;;;23.70;99.90;;;;;;5002107;28;20193;-78
2023/05/05 12:29:54;;;;;;;2.40;2.27;;;23.60;99.90;;;;;;4999740;28;20225;-80
2023/05/05 12:32:22;;;;;;;2.67;2.40;;;23.50;99.90;;;;;;4997359;28;20198;-80
2023/05/05 12:34:54;;;;;;;4.90;2.40;;;23.50;99.90;;;;;;5000973;28;20233;-81
2023/05/05 12:37:21;;;;;;;4.43;2.33;;;23.70;99.90;;;;;;4999544;28;20205;-79
2023/05/05 12:39:49;;;;;;;2.60;2.40;;;23.60;99.90;;;;;;4986853;28;20729;-80
2023/05/05 12:42:16;;;;;;;2.60;2.40;;;23.60;99.90;;;;;;4986466;28;20600;-78
2023/05/05 12:44:43;;;;;;;2.20;2.10;;;23.80;99.90;;;;;;5003892;28;20414;-78
2023/05/05 12:47:11;;;;;;;3.57;2.20;;;23.90;99.90;;;;;;4988494;28;20201;-78
2023/05/05 12:49:48;;;;;;;2.33;2.13;;;23.90;99.90;;;;;;4983668;28;20295;-78
2023/05/05 12:52:17;;;;;;;2.50;2.30;;;24.00;99.90;;;;;;4988162;28;20201;-80
2023/05/05 12:55:02;;;;;;;4.63;2.40;;;24.00;99.90;;;;;;5000989;28;20193;-80
2023/05/05 12:57:28;;;;;;;2.50;2.30;;;23.90;99.90;;;;;;5005668;28;20239;-80
2023/05/05 12:59:56;;;;;;;4.50;2.33;;;23.90;99.90;;;;;;5004103;28;20224;-79